sensor_id;sensor_type;location;lat;lon;timestamp;temperature;humidity
21551;DHT22;10936;49.836;7.078;2022-12-24T00:01:07;19.30;97.20
21551;DHT22;10936;49.836;7.078;2022-12-24T00:03:35;19.30;97.20
21551;DHT22;10936;49.836;7.078;2022-12-24T00:06:08;19.30;97.20
21551;DHT22;10936;49.836;7.078;2022-12-24T00:08:34;19.30;97.20
21551;DHT22;10936;49.836;7.078;2022-12-24T00:11:00;19.30;97.20
21551;DHT22;10936;49.836;7.078;2022-12-24T00:13:25;19.30;97.20
21551;DHT22;10936;49.836;7.078;2022-12-24T00:15:51;19.30;97.10
21551;DHT22;10936;49.836;7.078;2022-12-24T00:18:16;19.30;97.10
21551;DHT22;10936;49.836;7.078;2022-12-24T00:20:47;19.30;97.10
21551;DHT22;10936;49.836;7.078;2022-12-24T00:23:13;19.30;97.10
21551;DHT22;10936;49.836;7.078;2022-12-24T00:25:38;19.30;97.10
21551;DHT22;10936;49.836;7.078;2022-12-24T00:28:04;19.30;97.10
21551;DHT22;10936;49.836;7.078;2022-12-24T00:30:30;19.30;97.00
21551;DHT22;10936;49.836;7.078;2022-12-24T00:32:55;19.30;97.00
21551;DHT22;10936;49.836;7.078;2022-12-24T00:35:21;19.30;97.00
21551;DHT22;10936;49.836;7.078;2022-12-24T00:37:47;19.30;97.00
21551;DHT22;10936;49.836;7.078;2022-12-24T00:40:13;19.20;97.00
21551;DHT22;10936;49.836;7.078;2022-12-24T00:42:39;19.30;97.00
21551;DHT22;10936;49.836;7.078;2022-12-24T00:45:05;19.30;96.90
21551;DHT22;10936;49.836;7.078;2022-12-24T00:47:30;19.30;96.90
21551;DHT22;10936;49.836;7.078;2022-12-24T00:49:56;19.30;96.90
21551;DHT22;10936;49.836;7.078;2022-12-24T00:52:21;19.30;96.90
21551;DHT22;10936;49.836;7.078;2022-12-24T00:54:47;19.20;96.90
21551;DHT22;10936;49.836;7.078;2022-12-24T00:57:12;19.30;96.90
21551;DHT22;10936;49.836;7.078;2022-12-24T00:59:38;19.20;96.90
21551;DHT22;10936;49.836;7.078;2022-12-24T06:01:00;19.10;96.30
21551;DHT22;10936;49.836;7.078;2022-12-24T06:03:26;19.10;96.30
21551;DHT22;10936;49.836;7.078;2022-12-24T06:06:00;19.10;96.30
21551;DHT22;10936;49.836;7.078;2022-12-24T06:08:26;19.10;96.30
21551;DHT22;10936;49.836;7.078;2022-12-24T06:10:57;19.10;96.30
21551;DHT22;10936;49.836;7.078;2022-12-24T06:13:23;19.10;96.30
21551;DHT22;10936;49.836;7.078;2022-12-24T06:15:49;19.10;96.30
21551;DHT22;10936;49.836;7.078;2022-12-24T06:18:15;19.10;96.30
21551;DHT22;10936;49.836;7.078;2022-12-24T06:20:41;19.10;96.30
21551;DHT22;10936;49.836;7.078;2022-12-24T06:23:06;19.10;96.30
21551;DHT22;10936;49.836;7.078;2022-12-24T06:25:33;19.10;96.30
21551;DHT22;10936;49.836;7.078;2022-12-24T06:27:58;19.10;96.20
21551;DHT22;10936;49.836;7.078;2022-12-24T06:30:24;19.10;96.20
21551;DHT22;10936;49.836;7.078;2022-12-24T06:32:49;19.10;96.20
21551;DHT22;10936;49.836;7.078;2022-12-24T06:35:15;19.10;96.20
21551;DHT22;10936;49.836;7.078;2022-12-24T06:37:40;19.10;96.20
21551;DHT22;10936;49.836;7.078;2022-12-24T06:40:07;19.10;96.20
21551;DHT22;10936;49.836;7.078;2022-12-24T06:42:32;19.10;96.20
21551;DHT22;10936;49.836;7.078;2022-12-24T06:44:58;19.10;96.20
21551;DHT22;10936;49.836;7.078;2022-12-24T06:47:23;19.10;96.20
21551;DHT22;10936;49.836;7.078;2022-12-24T06:49:49;19.10;96.20
21551;DHT22;10936;49.836;7.078;2022-12-24T06:52:15;19.10;96.20
21551;DHT22;10936;49.836;7.078;2022-12-24T06:54:40;19.10;96.20
21551;DHT22;10936;49.836;7.078;2022-12-24T06:57:06;19.10;96.20
21551;DHT22;10936;49.836;7.078;2022-12-24T06:59:31;19.10;96.20
21551;DHT22;10936;49.836;7.078;2022-12-24T07:01:57;19.10;96.20
21551;DHT22;10936;49.836;7.078;2022-12-24T07:04:23;19.10;96.20
21551;DHT22;10936;49.836;7.078;2022-12-24T07:06:48;19.10;96.20
21551;DHT22;10936;49.836;7.078;2022-12-24T07:09:14;19.10;96.20
21551;DHT22;10936;49.836;7.078;2022-12-24T07:11:39;19.10;96.20
21551;DHT22;10936;49.836;7.078;2022-12-24T07:14:05;19.10;96.20
21551;DHT22;10936;49.836;7.078;2022-12-24T07:16:31;19.10;96.20
21551;DHT22;10936;49.836;7.078;2022-12-24T07:18:56;19.10;96.20
21551;DHT22;10936;49.836;7.078;2022-12-24T07:21:22;19.10;96.20
21551;DHT22;10936;49.836;7.078;2022-12-24T07:23:47;19.10;96.20
21551;DHT22;10936;49.836;7.078;2022-12-24T07:26:13;19.10;96.20
21551;DHT22;10936;49.836;7.078;2022-12-24T07:28:38;19.10;96.20
21551;DHT22;10936;49.836;7.078;2022-12-24T07:31:04;19.10;96.20
21551;DHT22;10936;49.836;7.078;2022-12-24T07:33:30;19.10;96.20
21551;DHT22;10936;49.836;7.078;2022-12-24T07:36:01;19.10;96.20
21551;DHT22;10936;49.836;7.078;2022-12-24T07:38:27;19.10;96.20
21551;DHT22;10936;49.836;7.078;2022-12-24T07:40:53;19.20;96.20
21551;DHT22;10936;49.836;7.078;2022-12-24T07:43:18;19.20;96.20
21551;DHT22;10936;49.836;7.078;2022-12-24T07:45:44;19.10;96.20
21551;DHT22;10936;49.836;7.078;2022-12-24T07:48:09;19.10;96.20
21551;DHT22;10936;49.836;7.078;2022-12-24T07:50:35;19.20;96.20
21551;DHT22;10936;49.836;7.078;2022-12-24T07:53:00;19.10;96.20
21551;DHT22;10936;49.836;7.078;2022-12-24T07:55:26;19.10;96.20
21551;DHT22;10936;49.836;7.078;2022-12-24T07:57:51;19.10;96.10
21551;DHT22;10936;49.836;7.078;2022-12-24T08:00:17;19.20;96.20
21551;DHT22;10936;49.836;7.078;2022-12-24T08:02:43;19.10;96.10
21551;DHT22;10936;49.836;7.078;2022-12-24T08:05:08;19.20;96.20
21551;DHT22;10936;49.836;7.078;2022-12-24T08:07:34;19.20;96.10
21551;DHT22;10936;49.836;7.078;2022-12-24T08:09:59;19.20;96.10
21551;DHT22;10936;49.836;7.078;2022-12-24T08:12:25;19.10;96.10
21551;DHT22;10936;49.836;7.078;2022-12-24T08:14:50;19.10;96.10
21551;DHT22;10936;49.836;7.078;2022-12-24T08:17:16;19.20;96.10
21551;DHT22;10936;49.836;7.078;2022-12-24T08:19:41;19.20;96.10
21551;DHT22;10936;49.836;7.078;2022-12-24T08:22:08;19.20;96.10
21551;DHT22;10936;49.836;7.078;2022-12-24T08:24:34;19.20;96.10
21551;DHT22;10936;49.836;7.078;2022-12-24T08:26:59;19.20;96.10
21551;DHT22;10936;49.836;7.078;2022-12-24T08:29:25;19.20;96.10
21551;DHT22;10936;49.836;7.078;2022-12-24T08:31:50;19.20;96.10
21551;DHT22;10936;49.836;7.078;2022-12-24T08:34:16;19.20;96.10
21551;DHT22;10936;49.836;7.078;2022-12-24T08:36:41;19.20;96.10
21551;DHT22;10936;49.836;7.078;2022-12-24T08:39:07;19.20;96.10
21551;DHT22;10936;49.836;7.078;2022-12-24T08:41:33;19.20;96.10
21551;DHT22;10936;49.836;7.078;2022-12-24T08:43:59;19.20;96.10
21551;DHT22;10936;49.836;7.078;2022-12-24T08:46:25;19.20;96.10
21551;DHT22;10936;49.836;7.078;2022-12-24T08:48:50;19.20;96.10
21551;DHT22;10936;49.836;7.078;2022-12-24T08:51:16;19.20;96.10
21551;DHT22;10936;49.836;7.078;2022-12-24T08:53:44;19.20;96.10
21551;DHT22;10936;49.836;7.078;2022-12-24T08:56:10;19.20;96.10
21551;DHT22;10936;49.836;7.078;2022-12-24T08:58:36;19.20;96.00
21551;DHT22;10936;49.836;7.078;2022-12-24T09:01:12;19.20;96.00
21551;DHT22;10936;49.836;7.078;2022-12-24T09:03:38;19.20;96.00
21551;DHT22;10936;49.836;7.078;2022-12-24T09:06:05;19.20;96.00
21551;DHT22;10936;49.836;7.078;2022-12-24T09:08:31;19.20;96.00
21551;DHT22;10936;49.836;7.078;2022-12-24T09:11:09;19.20;96.00
21551;DHT22;10936;49.836;7.078;2022-12-24T09:13:36;19.20;96.00
21551;DHT22;10936;49.836;7.078;2022-12-24T09:16:01;19.20;96.00
21551;DHT22;10936;49.836;7.078;2022-12-24T09:18:27;19.20;96.00
21551;DHT22;10936;49.836;7.078;2022-12-24T09:21:01;19.20;96.00
21551;DHT22;10936;49.836;7.078;2022-12-24T09:23:27;19.20;96.00
21551;DHT22;10936;49.836;7.078;2022-12-24T09:25:53;19.20;96.00
21551;DHT22;10936;49.836;7.078;2022-12-24T09:28:18;19.20;96.00
21551;DHT22;10936;49.836;7.078;2022-12-24T09:30:44;19.20;96.00
21551;DHT22;10936;49.836;7.078;2022-12-24T09:33:09;19.20;96.00
21551;DHT22;10936;49.836;7.078;2022-12-24T09:35:37;19.20;96.00
21551;DHT22;10936;49.836;7.078;2022-12-24T09:38:03;19.20;96.00
21551;DHT22;10936;49.836;7.078;2022-12-24T09:40:38;19.30;96.00
21551;DHT22;10936;49.836;7.078;2022-12-24T09:43:13;19.20;95.90
21551;DHT22;10936;49.836;7.078;2022-12-24T09:48:30;19.20;96.00
21551;DHT22;10936;49.836;7.078;2022-12-24T09:51:07;19.20;95.90
21551;DHT22;10936;49.836;7.078;2022-12-24T09:53:40;19.20;95.90
21551;DHT22;10936;49.836;7.078;2022-12-24T09:56:32;19.20;95.90
21551;DHT22;10936;49.836;7.078;2022-12-24T09:59:01;19.20;95.90
21551;DHT22;10936;49.836;7.078;2022-12-24T10:01:31;19.20;95.90
21551;DHT22;10936;49.836;7.078;2022-12-24T10:04:01;19.20;96.00
21551;DHT22;10936;49.836;7.078;2022-12-24T10:09:35;19.30;96.00
21551;DHT22;10936;49.836;7.078;2022-12-24T10:14:53;19.30;96.00
21551;DHT22;10936;49.836;7.078;2022-12-24T10:23:08;19.30;96.10
21551;DHT22;10936;49.836;7.078;2022-12-24T10:28:07;19.30;96.10
21551;DHT22;10936;49.836;7.078;2022-12-24T10:30:36;19.30;96.10
21551;DHT22;10936;49.836;7.078;2022-12-24T10:33:17;19.30;96.10
21551;DHT22;10936;49.836;7.078;2022-12-24T10:35:46;19.30;96.10
21551;DHT22;10936;49.836;7.078;2022-12-24T10:38:13;19.30;96.10
21551;DHT22;10936;49.836;7.078;2022-12-24T10:40:42;19.30;96.00
21551;DHT22;10936;49.836;7.078;2022-12-24T10:43:17;19.30;96.10
21551;DHT22;10936;49.836;7.078;2022-12-24T10:45:47;19.30;96.10
21551;DHT22;10936;49.836;7.078;2022-12-24T10:48:27;19.30;96.10
21551;DHT22;10936;49.836;7.078;2022-12-24T10:51:05;19.30;96.10
21551;DHT22;10936;49.836;7.078;2022-12-24T10:53:43;19.30;96.10
21551;DHT22;10936;49.836;7.078;2022-12-24T10:56:11;19.30;96.10
21551;DHT22;10936;49.836;7.078;2022-12-24T10:58:43;19.30;96.10
21551;DHT22;10936;49.836;7.078;2022-12-24T11:01:09;19.30;96.10
21551;DHT22;10936;49.836;7.078;2022-12-24T11:03:35;19.30;96.10
21551;DHT22;10936;49.836;7.078;2022-12-24T11:08:35;19.30;96.00
21551;DHT22;10936;49.836;7.078;2022-12-24T11:11:07;19.30;96.00
21551;DHT22;10936;49.836;7.078;2022-12-24T11:13:54;19.30;96.00
21551;DHT22;10936;49.836;7.078;2022-12-24T11:16:51;19.30;96.00
21551;DHT22;10936;49.836;7.078;2022-12-24T11:19:22;19.30;96.00
21551;DHT22;10936;49.836;7.078;2022-12-24T11:21:57;19.30;96.00
21551;DHT22;10936;49.836;7.078;2022-12-24T11:24:27;19.30;96.00
21551;DHT22;10936;49.836;7.078;2022-12-24T11:26:54;19.30;96.00
21551;DHT22;10936;49.836;7.078;2022-12-24T11:29:39;19.30;96.00
21551;DHT22;10936;49.836;7.078;2022-12-24T11:32:34;19.30;96.00
21551;DHT22;10936;49.836;7.078;2022-12-24T11:35:18;19.30;96.00
21551;DHT22;10936;49.836;7.078;2022-12-24T11:37:46;19.30;96.00
21551;DHT22;10936;49.836;7.078;2022-12-24T11:40:23;19.30;96.00
21551;DHT22;10936;49.836;7.078;2022-12-24T11:42:50;19.30;96.00
21551;DHT22;10936;49.836;7.078;2022-12-24T11:45:22;19.40;96.00
21551;DHT22;10936;49.836;7.078;2022-12-24T11:47:49;19.30;96.00
21551;DHT22;10936;49.836;7.078;2022-12-24T11:55:46;19.40;96.10
21551;DHT22;10936;49.836;7.078;2022-12-24T11:58:34;19.40;96.10
21551;DHT22;10936;49.836;7.078;2022-12-24T12:01:20;19.40;96.00
21551;DHT22;10936;49.836;7.078;2022-12-24T12:03:53;19.40;96.10
21551;DHT22;10936;49.836;7.078;2022-12-24T12:09:20;19.40;96.10
21551;DHT22;10936;49.836;7.078;2022-12-24T12:11:47;19.40;96.10
21551;DHT22;10936;49.836;7.078;2022-12-24T12:14:20;19.40;96.10
21551;DHT22;10936;49.836;7.078;2022-12-24T12:19:58;19.40;96.10
21551;DHT22;10936;49.836;7.078;2022-12-24T12:22:34;19.40;96.10
21551;DHT22;10936;49.836;7.078;2022-12-24T12:25:05;19.40;96.10
21551;DHT22;10936;49.836;7.078;2022-12-24T12:27:43;19.40;96.10
21551;DHT22;10936;49.836;7.078;2022-12-24T12:30:15;19.40;96.10
21551;DHT22;10936;49.836;7.078;2022-12-24T12:35:35;19.40;96.10
21551;DHT22;10936;49.836;7.078;2022-12-24T12:38:14;19.40;96.10
21551;DHT22;10936;49.836;7.078;2022-12-24T12:54:53;19.50;96.30
21551;DHT22;10936;49.836;7.078;2022-12-24T12:57:25;19.50;96.20
21551;DHT22;10936;49.836;7.078;2022-12-24T13:00:07;19.50;96.20
21551;DHT22;10936;49.836;7.078;2022-12-24T13:02:40;19.50;96.30
21551;DHT22;10936;49.836;7.078;2022-12-24T13:16:01;19.50;96.30
21551;DHT22;10936;49.836;7.078;2022-12-24T13:18:54;19.50;96.30
21551;DHT22;10936;49.836;7.078;2022-12-24T13:21:24;19.60;96.30
21551;DHT22;10936;49.836;7.078;2022-12-24T13:24:04;19.60;96.30
21551;DHT22;10936;49.836;7.078;2022-12-24T13:26:30;19.60;96.30
21551;DHT22;10936;49.836;7.078;2022-12-24T13:29:28;19.60;96.30
21551;DHT22;10936;49.836;7.078;2022-12-24T13:34:56;19.70;96.30
21551;DHT22;10936;49.836;7.078;2022-12-24T13:45:48;19.60;96.30
21551;DHT22;10936;49.836;7.078;2022-12-24T13:48:26;19.60;96.30
21551;DHT22;10936;49.836;7.078;2022-12-24T13:50:54;19.60;96.30
21551;DHT22;10936;49.836;7.078;2022-12-24T13:53:32;19.60;96.60
21551;DHT22;10936;49.836;7.078;2022-12-24T13:56:08;19.70;96.30
21551;DHT22;10936;49.836;7.078;2022-12-24T13:58:46;19.70;96.30
21551;DHT22;10936;49.836;7.078;2022-12-24T14:01:19;19.60;96.30
21551;DHT22;10936;49.836;7.078;2022-12-24T14:03:50;19.70;96.30
21551;DHT22;10936;49.836;7.078;2022-12-24T14:06:26;19.70;96.30
21551;DHT22;10936;49.836;7.078;2022-12-24T14:09:04;19.70;96.30
21551;DHT22;10936;49.836;7.078;2022-12-24T14:14:33;19.70;96.30
21551;DHT22;10936;49.836;7.078;2022-12-24T14:17:20;19.70;96.30
21551;DHT22;10936;49.836;7.078;2022-12-24T14:20:00;19.70;96.20
21551;DHT22;10936;49.836;7.078;2022-12-24T14:25:12;19.70;96.20
21551;DHT22;10936;49.836;7.078;2022-12-24T14:32:40;19.70;96.20
21551;DHT22;10936;49.836;7.078;2022-12-24T14:35:14;19.80;96.20
21551;DHT22;10936;49.836;7.078;2022-12-24T14:37:55;19.70;96.10
21551;DHT22;10936;49.836;7.078;2022-12-24T14:40:26;19.70;96.10
21551;DHT22;10936;49.836;7.078;2022-12-24T14:42:57;19.80;96.20
21551;DHT22;10936;49.836;7.078;2022-12-24T14:45:53;19.80;96.20
21551;DHT22;10936;49.836;7.078;2022-12-24T14:48:27;19.80;96.10
21551;DHT22;10936;49.836;7.078;2022-12-24T14:51:31;19.80;96.10
21551;DHT22;10936;49.836;7.078;2022-12-24T14:56:39;19.80;96.10
21551;DHT22;10936;49.836;7.078;2022-12-24T14:59:16;19.80;96.10
21551;DHT22;10936;49.836;7.078;2022-12-24T15:01:42;19.80;96.10
21551;DHT22;10936;49.836;7.078;2022-12-24T15:06:51;19.80;96.10
21551;DHT22;10936;49.836;7.078;2022-12-24T15:09:21;19.80;96.10
21551;DHT22;10936;49.836;7.078;2022-12-24T15:11:50;19.80;96.10
21551;DHT22;10936;49.836;7.078;2022-12-24T15:14:17;19.90;96.10
21551;DHT22;10936;49.836;7.078;2022-12-24T15:16:55;19.90;96.00
21551;DHT22;10936;49.836;7.078;2022-12-24T15:19:28;19.90;95.90
21551;DHT22;10936;49.836;7.078;2022-12-24T15:21:55;20.00;95.80
21551;DHT22;10936;49.836;7.078;2022-12-24T15:24:36;20.00;95.80
21551;DHT22;10936;49.836;7.078;2022-12-24T15:27:16;20.10;95.80
21551;DHT22;10936;49.836;7.078;2022-12-24T15:29:44;20.20;95.70
21551;DHT22;10936;49.836;7.078;2022-12-24T15:32:13;20.30;95.60
21551;DHT22;10936;49.836;7.078;2022-12-24T15:34:41;20.30;95.40
21551;DHT22;10936;49.836;7.078;2022-12-24T15:37:15;20.40;95.40
21551;DHT22;10936;49.836;7.078;2022-12-24T15:39:43;20.50;95.40
21551;DHT22;10936;49.836;7.078;2022-12-24T15:42:10;20.60;95.40
21551;DHT22;10936;49.836;7.078;2022-12-24T15:45:12;20.70;95.20
21551;DHT22;10936;49.836;7.078;2022-12-24T15:47:44;20.80;95.20
21551;DHT22;10936;49.836;7.078;2022-12-24T15:50:30;20.90;95.10
21551;DHT22;10936;49.836;7.078;2022-12-24T15:53:05;21.00;95.00
21551;DHT22;10936;49.836;7.078;2022-12-24T15:55:45;21.10;94.90
21551;DHT22;10936;49.836;7.078;2022-12-24T15:58:34;21.20;94.80
21551;DHT22;10936;49.836;7.078;2022-12-24T16:03:29;21.40;94.60
21551;DHT22;10936;49.836;7.078;2022-12-24T16:06:02;21.50;94.90
21551;DHT22;10936;49.836;7.078;2022-12-24T16:08:31;21.50;94.50
21551;DHT22;10936;49.836;7.078;2022-12-24T16:11:16;21.60;94.40
21551;DHT22;10936;49.836;7.078;2022-12-24T16:16:40;21.80;94.30
21551;DHT22;10936;49.836;7.078;2022-12-24T16:19:18;21.80;94.20
21551;DHT22;10936;49.836;7.078;2022-12-24T16:21:56;21.90;94.20
21551;DHT22;10936;49.836;7.078;2022-12-24T16:24:27;22.00;94.20
21551;DHT22;10936;49.836;7.078;2022-12-24T16:26:53;22.00;94.10
21551;DHT22;10936;49.836;7.078;2022-12-24T16:29:19;22.00;94.00
21551;DHT22;10936;49.836;7.078;2022-12-24T16:31:45;22.10;94.10
21551;DHT22;10936;49.836;7.078;2022-12-24T16:34:13;22.10;94.10
21551;DHT22;10936;49.836;7.078;2022-12-24T16:36:39;22.10;94.00
21551;DHT22;10936;49.836;7.078;2022-12-24T16:39:11;22.20;94.00
21551;DHT22;10936;49.836;7.078;2022-12-24T16:41:54;22.30;94.00
21551;DHT22;10936;49.836;7.078;2022-12-24T16:44:39;22.30;94.00
21551;DHT22;10936;49.836;7.078;2022-12-24T16:47:06;22.30;93.90
21551;DHT22;10936;49.836;7.078;2022-12-24T16:49:35;22.40;93.90
21551;DHT22;10936;49.836;7.078;2022-12-24T16:52:02;22.40;93.90
21551;DHT22;10936;49.836;7.078;2022-12-24T16:54:27;22.40;93.90
21551;DHT22;10936;49.836;7.078;2022-12-24T16:56:54;22.50;93.90
21551;DHT22;10936;49.836;7.078;2022-12-24T16:59:22;22.40;93.80
21551;DHT22;10936;49.836;7.078;2022-12-24T17:01:48;22.50;93.90
21551;DHT22;10936;49.836;7.078;2022-12-24T17:04:15;22.50;93.90
21551;DHT22;10936;49.836;7.078;2022-12-24T17:06:42;22.50;93.90
21551;DHT22;10936;49.836;7.078;2022-12-24T17:09:09;22.50;93.90
21551;DHT22;10936;49.836;7.078;2022-12-24T17:11:35;22.50;93.90
21551;DHT22;10936;49.836;7.078;2022-12-24T17:14:01;22.50;93.90
21551;DHT22;10936;49.836;7.078;2022-12-24T17:16:27;22.50;93.90
21551;DHT22;10936;49.836;7.078;2022-12-24T17:18:53;22.60;94.00
21551;DHT22;10936;49.836;7.078;2022-12-24T17:21:19;22.60;94.00
21551;DHT22;10936;49.836;7.078;2022-12-24T17:23:44;22.50;94.00
21551;DHT22;10936;49.836;7.078;2022-12-24T17:26:10;22.50;94.00
21551;DHT22;10936;49.836;7.078;2022-12-24T17:28:37;22.50;94.00
21551;DHT22;10936;49.836;7.078;2022-12-24T17:31:12;22.50;94.00
21551;DHT22;10936;49.836;7.078;2022-12-24T17:33:37;22.50;94.00
21551;DHT22;10936;49.836;7.078;2022-12-24T17:36:04;22.50;94.10
21551;DHT22;10936;49.836;7.078;2022-12-24T17:38:29;22.50;94.10
21551;DHT22;10936;49.836;7.078;2022-12-24T17:41:11;22.50;94.10
21551;DHT22;10936;49.836;7.078;2022-12-24T17:43:37;22.50;94.10
21551;DHT22;10936;49.836;7.078;2022-12-24T17:46:08;22.40;94.10
21551;DHT22;10936;49.836;7.078;2022-12-24T17:48:34;22.40;94.20
21551;DHT22;10936;49.836;7.078;2022-12-24T17:51:07;22.40;94.20
21551;DHT22;10936;49.836;7.078;2022-12-24T17:53:34;22.40;94.20
21551;DHT22;10936;49.836;7.078;2022-12-24T17:56:00;22.40;94.20
21551;DHT22;10936;49.836;7.078;2022-12-24T17:58:27;22.40;94.30
21551;DHT22;10936;49.836;7.078;2022-12-24T18:00:53;22.40;94.60
21551;DHT22;10936;49.836;7.078;2022-12-24T18:03:20;22.40;94.30
21551;DHT22;10936;49.836;7.078;2022-12-24T18:05:46;22.40;94.30
21551;DHT22;10936;49.836;7.078;2022-12-24T18:08:11;22.30;94.30
21551;DHT22;10936;49.836;7.078;2022-12-24T18:10:37;22.30;94.30
21551;DHT22;10936;49.836;7.078;2022-12-24T18:13:03;22.30;94.40
21551;DHT22;10936;49.836;7.078;2022-12-24T18:15:32;22.20;94.40
21551;DHT22;10936;49.836;7.078;2022-12-24T18:17:58;22.30;94.40
21551;DHT22;10936;49.836;7.078;2022-12-24T18:20:24;22.20;94.40
21551;DHT22;10936;49.836;7.078;2022-12-24T18:22:50;22.20;94.40
21551;DHT22;10936;49.836;7.078;2022-12-24T18:25:15;22.20;94.50
21551;DHT22;10936;49.836;7.078;2022-12-24T18:27:41;22.20;94.50
21551;DHT22;10936;49.836;7.078;2022-12-24T18:30:07;22.20;94.50
21551;DHT22;10936;49.836;7.078;2022-12-24T18:32:34;22.10;94.50
21551;DHT22;10936;49.836;7.078;2022-12-24T18:34:59;22.10;94.50
21551;DHT22;10936;49.836;7.078;2022-12-24T18:37:25;22.10;94.60
21551;DHT22;10936;49.836;7.078;2022-12-24T18:39:51;22.10;94.60
21551;DHT22;10936;49.836;7.078;2022-12-24T18:42:16;22.10;94.60
21551;DHT22;10936;49.836;7.078;2022-12-24T18:44:43;22.10;94.60
21551;DHT22;10936;49.836;7.078;2022-12-24T18:47:09;22.00;94.60
21551;DHT22;10936;49.836;7.078;2022-12-24T18:49:36;22.00;94.60
21551;DHT22;10936;49.836;7.078;2022-12-24T18:52:06;22.00;94.70
21551;DHT22;10936;49.836;7.078;2022-12-24T18:54:32;22.00;94.70
21551;DHT22;10936;49.836;7.078;2022-12-24T18:56:57;21.90;94.70
21551;DHT22;10936;49.836;7.078;2022-12-24T18:59:23;22.00;94.80
21551;DHT22;10936;49.836;7.078;2022-12-24T19:01:49;22.00;94.80
21551;DHT22;10936;49.836;7.078;2022-12-24T19:04:14;21.90;94.80
21551;DHT22;10936;49.836;7.078;2022-12-24T19:06:41;21.90;94.80
21551;DHT22;10936;49.836;7.078;2022-12-24T19:09:07;21.90;94.90
21551;DHT22;10936;49.836;7.078;2022-12-24T19:11:34;21.90;94.90
21551;DHT22;10936;49.836;7.078;2022-12-24T19:14:00;21.90;94.90
21551;DHT22;10936;49.836;7.078;2022-12-24T19:16:28;21.90;94.90
21551;DHT22;10936;49.836;7.078;2022-12-24T19:18:54;21.80;94.90
21551;DHT22;10936;49.836;7.078;2022-12-24T19:21:20;21.80;95.00
21551;DHT22;10936;49.836;7.078;2022-12-24T19:23:46;21.80;95.00
21551;DHT22;10936;49.836;7.078;2022-12-24T19:26:13;21.80;95.10
21551;DHT22;10936;49.836;7.078;2022-12-24T19:28:40;21.80;95.10
21551;DHT22;10936;49.836;7.078;2022-12-24T19:31:08;21.80;95.20
21551;DHT22;10936;49.836;7.078;2022-12-24T19:33:42;21.80;95.20
21551;DHT22;10936;49.836;7.078;2022-12-24T19:36:10;21.80;95.30
21551;DHT22;10936;49.836;7.078;2022-12-24T19:38:36;21.80;95.30
21551;DHT22;10936;49.836;7.078;2022-12-24T19:41:06;21.80;95.40
21551;DHT22;10936;49.836;7.078;2022-12-24T19:43:35;21.70;95.50
21551;DHT22;10936;49.836;7.078;2022-12-24T19:46:01;21.70;95.50
21551;DHT22;10936;49.836;7.078;2022-12-24T19:48:27;21.70;95.50
21551;DHT22;10936;49.836;7.078;2022-12-24T19:50:59;21.70;95.50
21551;DHT22;10936;49.836;7.078;2022-12-24T19:53:25;21.70;95.60
21551;DHT22;10936;49.836;7.078;2022-12-24T19:55:50;21.70;95.60
21551;DHT22;10936;49.836;7.078;2022-12-24T19:58:16;21.70;95.60
21551;DHT22;10936;49.836;7.078;2022-12-24T20:00:41;21.60;95.60
21551;DHT22;10936;49.836;7.078;2022-12-24T20:03:07;21.60;95.60
21551;DHT22;10936;49.836;7.078;2022-12-24T20:05:32;21.60;95.60
21551;DHT22;10936;49.836;7.078;2022-12-24T20:07:58;21.60;95.60
21551;DHT22;10936;49.836;7.078;2022-12-24T20:10:23;21.60;95.60
21551;DHT22;10936;49.836;7.078;2022-12-24T20:12:49;21.60;95.60
21551;DHT22;10936;49.836;7.078;2022-12-24T20:15:14;21.60;95.60
21551;DHT22;10936;49.836;7.078;2022-12-24T20:17:40;21.50;95.50
21551;DHT22;10936;49.836;7.078;2022-12-24T20:20:06;21.50;95.50
21551;DHT22;10936;49.836;7.078;2022-12-24T20:22:32;21.50;95.50
21551;DHT22;10936;49.836;7.078;2022-12-24T20:24:57;21.50;95.50
21551;DHT22;10936;49.836;7.078;2022-12-24T20:27:23;21.50;95.60
21551;DHT22;10936;49.836;7.078;2022-12-24T20:29:50;21.50;95.60
21551;DHT22;10936;49.836;7.078;2022-12-24T20:32:15;21.50;95.60
21551;DHT22;10936;49.836;7.078;2022-12-24T20:34:41;21.50;95.60
21551;DHT22;10936;49.836;7.078;2022-12-24T20:37:06;21.50;95.60
21551;DHT22;10936;49.836;7.078;2022-12-24T20:39:32;21.50;95.60
21551;DHT22;10936;49.836;7.078;2022-12-24T20:41:57;21.50;95.60
21551;DHT22;10936;49.836;7.078;2022-12-24T20:44:26;21.50;95.60
21551;DHT22;10936;49.836;7.078;2022-12-24T20:46:51;21.40;95.60
21551;DHT22;10936;49.836;7.078;2022-12-24T20:49:17;21.40;95.60
21551;DHT22;10936;49.836;7.078;2022-12-24T20:51:43;21.40;95.60
21551;DHT22;10936;49.836;7.078;2022-12-24T20:54:09;21.40;95.50
21551;DHT22;10936;49.836;7.078;2022-12-24T20:56:34;21.40;95.50
21551;DHT22;10936;49.836;7.078;2022-12-24T20:59:00;21.40;95.50
21551;DHT22;10936;49.836;7.078;2022-12-24T21:01:26;21.40;95.50
21551;DHT22;10936;49.836;7.078;2022-12-24T21:03:54;21.40;95.50
21551;DHT22;10936;49.836;7.078;2022-12-24T21:06:21;21.40;95.60
21551;DHT22;10936;49.836;7.078;2022-12-24T21:08:51;21.40;95.60
21551;DHT22;10936;49.836;7.078;2022-12-24T21:11:17;21.40;95.60
21551;DHT22;10936;49.836;7.078;2022-12-24T21:14:13;21.40;95.60
21551;DHT22;10936;49.836;7.078;2022-12-24T21:16:40;21.40;95.60
21551;DHT22;10936;49.836;7.078;2022-12-24T21:19:07;21.30;95.60
21551;DHT22;10936;49.836;7.078;2022-12-24T21:21:34;21.30;95.60
21551;DHT22;10936;49.836;7.078;2022-12-24T21:24:00;21.30;95.60
21551;DHT22;10936;49.836;7.078;2022-12-24T21:26:26;21.30;95.60
21551;DHT22;10936;49.836;7.078;2022-12-24T21:28:52;21.30;95.70
21551;DHT22;10936;49.836;7.078;2022-12-24T21:31:18;21.30;95.70
21551;DHT22;10936;49.836;7.078;2022-12-24T21:33:44;21.30;95.70
21551;DHT22;10936;49.836;7.078;2022-12-24T21:36:12;21.30;95.70
21551;DHT22;10936;49.836;7.078;2022-12-24T21:38:38;21.30;95.80
21551;DHT22;10936;49.836;7.078;2022-12-24T21:41:09;21.30;95.80
21551;DHT22;10936;49.836;7.078;2022-12-24T21:43:35;21.30;95.80
21551;DHT22;10936;49.836;7.078;2022-12-24T21:46:06;21.30;95.80
21551;DHT22;10936;49.836;7.078;2022-12-24T21:48:32;21.30;95.80
21551;DHT22;10936;49.836;7.078;2022-12-24T21:51:16;21.30;95.90
21551;DHT22;10936;49.836;7.078;2022-12-24T21:53:42;21.30;95.90
21551;DHT22;10936;49.836;7.078;2022-12-24T21:56:26;21.30;95.90
21551;DHT22;10936;49.836;7.078;2022-12-24T21:58:51;21.30;95.90
21551;DHT22;10936;49.836;7.078;2022-12-24T22:01:17;21.30;96.00
21551;DHT22;10936;49.836;7.078;2022-12-24T22:03:45;21.30;96.00
21551;DHT22;10936;49.836;7.078;2022-12-24T22:06:11;21.30;96.10
21551;DHT22;10936;49.836;7.078;2022-12-24T22:08:57;21.20;96.10
21551;DHT22;10936;49.836;7.078;2022-12-24T22:11:40;21.30;96.10
21551;DHT22;10936;49.836;7.078;2022-12-24T22:14:12;21.20;96.10